Time;durP1;ratioP1;P1;durP2;ratioP2;P2;SDS_P1;SDS_P2;PMS_P1;PMS_P2;Temp;Humidity;BMP_temperature;BMP_pressure;BME280_temperature;BME280_humidity;BME280_pressure;Samples;Min_cycle;Max_cycle;Signal;HPM_P1;HPM_P2
2021/05/22 00:02:24;;;;;;;6.65;2.27;;;;;;;;;;1656842;85;21074;-56
2021/05/22 00:04:50;;;;;;;8.00;2.77;;;;;;;;;;1658395;85;21071;-57
2021/05/22 00:07:17;;;;;;;4.12;2.30;;;;;;;;;;1658476;85;21000;-57
2021/05/22 00:09:45;;;;;;;5.22;2.30;;;;;;;;;;1658517;85;21017;-56
2021/05/22 00:12:12;;;;;;;7.12;1.87;;;;;;;;;;1656722;85;21052;-56
2021/05/22 00:14:38;;;;;;;3.90;2.10;;;;;;;;;;1658466;85;21113;-55
2021/05/22 00:17:04;;;;;;;3.08;2.00;;;;;;;;;;1658415;85;21569;-57
2021/05/22 00:19:30;;;;;;;7.20;2.40;;;;;;;;;;1658554;85;20933;-56
2021/05/22 00:21:58;;;;;;;6.65;2.35;;;;;;;;;;1656687;85;21008;-57
2021/05/22 00:24:25;;;;;;;6.25;2.45;;;;;;;;;;1659123;85;21600;-57
2021/05/22 00:26:52;;;;;;;3.60;2.00;;;;;;;;;;1661034;85;21009;-56
2021/05/22 00:29:20;;;;;;;5.40;2.65;;;;;;;;;;1659247;85;22394;-56
2021/05/22 00:31:46;;;;;;;11.10;2.60;;;;;;;;;;1659284;85;20993;-57
2021/05/22 00:34:13;;;;;;;6.40;2.15;;;;;;;;;;1661152;85;20996;-57
2021/05/22 00:36:39;;;;;;;7.72;3.05;;;;;;;;;;1661238;85;20996;-55
2021/05/22 00:39:05;;;;;;;6.08;2.42;;;;;;;;;;1661076;85;21113;-56
2021/05/22 00:41:32;;;;;;;6.55;2.20;;;;;;;;;;1659321;85;21605;-56
2021/05/22 00:43:58;;;;;;;7.30;2.20;;;;;;;;;;1655940;85;21006;-57
2021/05/22 00:46:25;;;;;;;6.08;2.12;;;;;;;;;;1652666;85;21624;-57
2021/05/22 00:48:53;;;;;;;6.17;2.72;;;;;;;;;;1661097;85;21652;-56
2021/05/22 00:51:19;;;;;;;4.42;2.10;;;;;;;;;;1659430;85;21102;-57
2021/05/22 00:53:45;;;;;;;5.70;2.05;;;;;;;;;;1661068;85;21049;-57
2021/05/22 00:56:11;;;;;;;7.65;2.10;;;;;;;;;;1647773;85;21043;-56
2021/05/22 00:58:39;;;;;;;7.75;2.15;;;;;;;;;;1662957;85;21352;-55
2021/05/22 01:01:05;;;;;;;5.30;2.00;;;;;;;;;;1654308;85;21054;-56
2021/05/22 01:03:33;;;;;;;4.50;1.80;;;;;;;;;;1654665;85;21105;-55
2021/05/22 01:06:03;;;;;;;4.17;1.62;;;;;;;;;;1655629;85;21045;-56
2021/05/22 01:08:29;;;;;;;3.95;2.08;;;;;;;;;;1656426;85;21022;-55
2021/05/22 01:11:01;;;;;;;3.92;1.72;;;;;;;;;;1655768;85;21064;-56
2021/05/22 01:13:32;;;;;;;8.03;1.90;;;;;;;;;;1651739;85;21014;-55
2021/05/22 01:15:58;;;;;;;7.70;1.92;;;;;;;;;;1655976;85;21082;-57
2021/05/22 01:18:25;;;;;;;5.87;1.80;;;;;;;;;;1655474;85;20954;-55
2021/05/22 01:20:56;;;;;;;2.90;1.70;;;;;;;;;;1656160;85;21005;-57
2021/05/22 01:23:40;;;;;;;4.67;1.80;;;;;;;;;;1649160;85;21053;-56
2021/05/22 01:26:07;;;;;;;8.58;1.90;;;;;;;;;;1657272;85;20942;-54
2021/05/22 01:28:36;;;;;;;6.20;2.10;;;;;;;;;;1657756;85;21854;-56
2021/05/22 01:31:03;;;;;;;4.70;2.00;;;;;;;;;;1635871;85;21054;-57
2021/05/22 01:33:30;;;;;;;5.47;1.70;;;;;;;;;;1645574;85;21014;-56
2021/05/22 01:35:57;;;;;;;5.50;1.95;;;;;;;;;;1697689;82;20992;-57
2021/05/22 01:38:23;;;;;;;5.97;2.02;;;;;;;;;;1703261;82;20969;-55
2021/05/22 01:40:51;;;;;;;4.35;1.82;;;;;;;;;;1702382;82;21563;-55
2021/05/22 01:43:19;;;;;;;3.70;1.62;;;;;;;;;;1684834;82;20937;-56
2021/05/22 01:45:45;;;;;;;6.05;1.47;;;;;;;;;;1696472;82;21606;-57
2021/05/22 01:48:13;;;;;;;2.20;1.62;;;;;;;;;;1696424;82;21072;-56
2021/05/22 01:50:43;;;;;;;4.20;1.52;;;;;;;;;;1696438;82;21676;-57
2021/05/22 01:53:11;;;;;;;2.10;1.70;;;;;;;;;;1694865;82;21717;-56
2021/05/22 01:55:38;;;;;;;4.12;1.72;;;;;;;;;;1696370;82;20933;-56
2021/05/22 01:58:05;;;;;;;2.42;1.77;;;;;;;;;;1673901;82;20980;-56
2021/05/22 02:00:31;;;;;;;3.17;1.55;;;;;;;;;;1701352;82;21044;-55
2021/05/22 02:03:02;;;;;;;2.25;1.67;;;;;;;;;;1700863;82;21491;-55
2021/05/22 02:05:28;;;;;;;5.55;1.67;;;;;;;;;;1700753;82;21173;-55
2021/05/22 02:07:56;;;;;;;2.15;1.30;;;;;;;;;;1702181;82;21103;-55
2021/05/22 02:10:23;;;;;;;3.47;1.55;;;;;;;;;;1693781;82;20993;-56
2021/05/22 02:12:51;;;;;;;3.15;1.62;;;;;;;;;;1700449;82;20937;-56
2021/05/22 02:15:18;;;;;;;3.77;1.62;;;;;;;;;;1700630;82;21000;-56
2021/05/22 02:17:45;;;;;;;3.00;2.05;;;;;;;;;;1701973;82;21075;-56
2021/05/22 02:20:12;;;;;;;2.27;1.57;;;;;;;;;;1699311;82;21498;-55
2021/05/22 02:22:41;;;;;;;3.50;2.15;;;;;;;;;;1673483;84;21652;-55
2021/05/22 02:25:09;;;;;;;3.10;1.50;;;;;;;;;;1701110;82;21056;-55
2021/05/22 02:27:36;;;;;;;5.08;1.67;;;;;;;;;;1704173;82;21044;-56
2021/05/22 02:30:05;;;;;;;5.12;1.52;;;;;;;;;;1700488;82;21117;-55
2021/05/22 02:32:31;;;;;;;5.17;1.62;;;;;;;;;;1691778;82;20962;-57
2021/05/22 02:34:57;;;;;;;3.37;1.52;;;;;;;;;;1704434;82;21538;-57
2021/05/22 02:37:29;;;;;;;7.37;1.60;;;;;;;;;;1704273;82;21004;-56
2021/05/22 02:39:57;;;;;;;4.15;1.80;;;;;;;;;;1704305;82;21599;-58
2021/05/22 02:42:23;;;;;;;2.90;1.87;;;;;;;;;;1691923;82;21629;-57
2021/05/22 02:44:50;;;;;;;5.42;1.65;;;;;;;;;;1704379;82;20922;-56
2021/05/22 02:47:17;;;;;;;4.22;1.72;;;;;;;;;;1704290;82;20933;-56
2021/05/22 02:49:43;;;;;;;2.35;1.47;;;;;;;;;;1669611;84;21033;-55
2021/05/22 02:52:10;;;;;;;3.35;1.60;;;;;;;;;;1700860;82;20925;-57
2021/05/22 02:54:39;;;;;;;1.82;1.62;;;;;;;;;;1704358;82;21043;-57
2021/05/22 02:57:06;;;;;;;5.65;1.57;;;;;;;;;;1704273;82;21009;-57
2021/05/22 02:59:32;;;;;;;5.58;1.60;;;;;;;;;;1704268;82;21625;-57
2021/05/22 03:02:01;;;;;;;2.27;1.47;;;;;;;;;;1701402;82;20977;-57
2021/05/22 03:04:28;;;;;;;2.45;1.70;;;;;;;;;;1704156;82;20981;-57
2021/05/22 03:06:54;;;;;;;7.22;1.92;;;;;;;;;;1704228;82;21104;-55
2021/05/22 03:09:20;;;;;;;4.10;1.90;;;;;;;;;;1704407;82;21522;-57
2021/05/22 03:11:47;;;;;;;1.62;1.32;;;;;;;;;;1702364;82;20977;-57
2021/05/22 03:14:13;;;;;;;5.25;1.95;;;;;;;;;;1704187;82;21068;-56
2021/05/22 03:16:39;;;;;;;7.22;1.85;;;;;;;;;;1704230;82;21101;-57
2021/05/22 03:19:05;;;;;;;2.22;1.70;;;;;;;;;;1704362;82;21108;-58
2021/05/22 03:21:32;;;;;;;1.65;1.55;;;;;;;;;;1705746;82;21005;-57
2021/05/22 03:23:58;;;;;;;2.33;1.62;;;;;;;;;;1703041;82;21060;-57
2021/05/22 03:26:24;;;;;;;2.17;1.65;;;;;;;;;;1703509;82;21069;-56
2021/05/22 03:28:50;;;;;;;4.85;1.90;;;;;;;;;;1703800;82;21021;-57
2021/05/22 03:31:16;;;;;;;5.40;2.47;;;;;;;;;;1698936;82;21164;-57
2021/05/22 03:33:43;;;;;;;3.17;1.98;;;;;;;;;;1698544;82;20977;-56
2021/05/22 03:36:09;;;;;;;2.75;1.95;;;;;;;;;;1701332;82;21021;-55
2021/05/22 03:38:35;;;;;;;5.65;2.00;;;;;;;;;;1693361;82;21045;-58
2021/05/22 03:41:01;;;;;;;2.20;1.90;;;;;;;;;;1700584;82;21064;-58
2021/05/22 03:43:27;;;;;;;3.62;2.33;;;;;;;;;;1695394;82;21070;-56
2021/05/22 03:45:54;;;;;;;4.42;2.08;;;;;;;;;;1696302;82;21578;-56
2021/05/22 03:48:22;;;;;;;5.08;2.20;;;;;;;;;;1696589;82;21008;-56
2021/05/22 03:50:48;;;;;;;3.87;1.50;;;;;;;;;;1694595;82;20976;-57
2021/05/22 03:53:15;;;;;;;5.03;1.50;;;;;;;;;;1694816;82;21029;-56
2021/05/22 03:55:41;;;;;;;4.60;2.00;;;;;;;;;;1696361;82;22315;-58
2021/05/22 03:58:07;;;;;;;4.42;2.00;;;;;;;;;;1696450;82;20901;-58
2021/05/22 04:00:34;;;;;;;3.65;1.87;;;;;;;;;;1696161;82;20996;-57
2021/05/22 04:03:01;;;;;;;5.28;2.10;;;;;;;;;;1694724;82;21529;-56
2021/05/22 04:05:27;;;;;;;2.33;1.60;;;;;;;;;;1690316;82;21030;-57
2021/05/22 04:07:53;;;;;;;2.25;2.00;;;;;;;;;;1696487;82;21152;-59
2021/05/22 04:10:19;;;;;;;5.22;1.90;;;;;;;;;;1696480;82;20889;-59
2021/05/22 04:12:46;;;;;;;3.42;1.95;;;;;;;;;;1696404;82;20980;-58
2021/05/22 04:15:13;;;;;;;3.45;1.60;;;;;;;;;;1689257;82;21049;-59
2021/05/22 04:17:39;;;;;;;2.95;1.62;;;;;;;;;;1721326;82;21019;-58
2021/05/22 04:20:07;;;;;;;3.70;1.72;;;;;;;;;;1705238;82;21047;-56
2021/05/22 04:22:33;;;;;;;1.70;1.42;;;;;;;;;;1706182;82;21556;-59
2021/05/22 04:24:59;;;;;;;3.45;2.10;;;;;;;;;;1704527;82;21011;-58
2021/05/22 04:27:25;;;;;;;4.80;2.02;;;;;;;;;;1699358;82;21597;-58
2021/05/22 04:29:52;;;;;;;5.55;2.20;;;;;;;;;;1661903;84;21046;-58
2021/05/22 04:32:18;;;;;;;10.00;2.15;;;;;;;;;;1691253;83;21114;-60
2021/05/22 04:34:44;;;;;;;4.25;1.90;;;;;;;;;;1689231;83;20950;-62
2021/05/22 04:37:10;;;;;;;3.45;1.80;;;;;;;;;;1691327;83;20957;-60
2021/05/22 04:39:37;;;;;;;2.98;1.87;;;;;;;;;;1690766;83;20972;-59
2021/05/22 04:42:04;;;;;;;6.83;2.58;;;;;;;;;;1691181;83;20976;-58
2021/05/22 04:44:31;;;;;;;2.25;1.77;;;;;;;;;;1691090;83;21171;-58
2021/05/22 04:46:57;;;;;;;4.10;1.98;;;;;;;;;;1691772;83;20966;-59
2021/05/22 04:49:27;;;;;;;3.10;2.15;;;;;;;;;;1692727;83;21605;-57
2021/05/22 04:51:52;;;;;;;3.33;1.70;;;;;;;;;;1691032;83;21062;-58
2021/05/22 04:54:18;;;;;;;5.53;2.67;;;;;;;;;;1691092;83;21643;-59
2021/05/22 04:56:45;;;;;;;2.65;1.77;;;;;;;;;;1691211;83;21098;-58
2021/05/22 04:59:11;;;;;;;7.83;2.22;;;;;;;;;;1690994;83;21000;-59
2021/05/22 05:01:40;;;;;;;3.22;2.22;;;;;;;;;;1691015;83;21590;-58
2021/05/22 05:04:07;;;;;;;4.47;2.05;;;;;;;;;;1691669;83;21621;-59
2021/05/22 05:06:34;;;;;;;5.58;2.80;;;;;;;;;;1691412;83;20988;-59
2021/05/22 05:09:00;;;;;;;6.42;2.90;;;;;;;;;;1691631;83;21165;-60
2021/05/22 05:11:30;;;;;;;5.47;2.80;;;;;;;;;;1691074;83;21028;-60
2021/05/22 05:13:57;;;;;;;4.83;3.30;;;;;;;;;;1691299;83;21047;-59
2021/05/22 05:16:23;;;;;;;8.23;4.00;;;;;;;;;;1691117;83;21565;-58
2021/05/22 05:18:49;;;;;;;8.03;3.47;;;;;;;;;;1692475;83;20968;-59
2021/05/22 05:21:16;;;;;;;6.62;3.25;;;;;;;;;;1693207;83;21523;-60
2021/05/22 05:23:43;;;;;;;8.93;3.40;;;;;;;;;;1692696;83;20992;-59
2021/05/22 05:26:09;;;;;;;7.45;2.55;;;;;;;;;;1693009;83;20993;-60
2021/05/22 05:28:35;;;;;;;9.98;3.30;;;;;;;;;;1693153;83;21626;-61
2021/05/22 05:31:02;;;;;;;6.72;3.62;;;;;;;;;;1692881;83;21084;-58
2021/05/22 05:33:28;;;;;;;7.03;2.80;;;;;;;;;;1693304;83;21062;-59
2021/05/22 05:35:55;;;;;;;7.05;3.27;;;;;;;;;;1692705;83;20972;-58
2021/05/22 05:38:21;;;;;;;4.30;2.60;;;;;;;;;;1693463;83;21472;-59
2021/05/22 05:40:47;;;;;;;7.42;2.33;;;;;;;;;;1692654;83;21040;-58
2021/05/22 05:43:17;;;;;;;3.40;2.02;;;;;;;;;;1693125;83;21654;-55
2021/05/22 05:45:45;;;;;;;5.15;2.40;;;;;;;;;;1664570;84;20989;-57
2021/05/22 05:48:11;;;;;;;6.70;2.80;;;;;;;;;;1691248;83;21016;-57
2021/05/22 05:50:37;;;;;;;4.37;2.30;;;;;;;;;;1691482;83;21431;-62
2021/05/22 05:53:04;;;;;;;3.58;1.87;;;;;;;;;;1691403;83;21028;-58
2021/05/22 05:55:30;;;;;;;4.50;1.65;;;;;;;;;;1691739;83;21045;-60
2021/05/22 05:57:57;;;;;;;1.30;1.20;;;;;;;;;;1693926;83;21704;-63
2021/05/22 06:00:24;;;;;;;4.22;1.30;;;;;;;;;;1693591;83;20977;-63
2021/05/22 06:02:51;;;;;;;2.72;1.22;;;;;;;;;;1693855;83;20986;-62
2021/05/22 06:05:17;;;;;;;4.12;1.20;;;;;;;;;;1693521;83;21637;-60
2021/05/22 06:07:44;;;;;;;2.27;1.07;;;;;;;;;;1693916;83;21025;-60
2021/05/22 06:10:11;;;;;;;5.33;1.32;;;;;;;;;;1693750;83;21100;-65
2021/05/22 06:12:39;;;;;;;3.45;1.10;;;;;;;;;;1693801;83;21042;-61
2021/05/22 06:17:44;;;;;;;7.17;1.17;;;;;;;;;;1693524;83;21045;-65
2021/05/22 06:20:11;;;;;;;4.95;1.35;;;;;;;;;;1693064;83;20949;-67
2021/05/22 06:22:38;;;;;;;2.45;1.10;;;;;;;;;;1693050;83;21812;-73
2021/05/22 06:25:06;;;;;;;1.72;0.72;;;;;;;;;;1693300;83;21598;-71
2021/05/22 06:27:32;;;;;;;1.10;0.95;;;;;;;;;;1698276;82;20984;-69
2021/05/22 06:30:00;;;;;;;2.42;0.95;;;;;;;;;;1701376;82;20910;-67
2021/05/22 06:32:28;;;;;;;2.85;1.02;;;;;;;;;;1699526;83;21027;-61
2021/05/22 06:34:54;;;;;;;1.32;1.10;;;;;;;;;;1700164;83;21648;-65
2021/05/22 06:37:22;;;;;;;2.00;1.00;;;;;;;;;;1699700;83;21058;-59
2021/05/22 06:39:50;;;;;;;2.52;0.82;;;;;;;;;;1700519;83;20997;-61
2021/05/22 06:42:16;;;;;;;4.65;1.47;;;;;;;;;;1702244;82;21071;-60
2021/05/22 06:45:08;;;;;;;2.52;0.90;;;;;;;;;;1699731;83;20964;-62
2021/05/22 06:47:12;;;;;;;3.02;1.20;;;;;;;;;;1690485;82;21868;-61
2021/05/22 06:49:38;;;;;;;4.90;1.10;;;;;;;;;;1699270;82;20999;-61
2021/05/22 06:52:05;;;;;;;0.70;0.70;;;;;;;;;;1701043;82;21021;-60
2021/05/22 06:54:34;;;;;;;1.85;0.90;;;;;;;;;;1701065;82;20993;-61
2021/05/22 06:56:59;;;;;;;1.70;1.02;;;;;;;;;;1700752;82;21016;-61
2021/05/22 06:59:25;;;;;;;4.67;1.10;;;;;;;;;;1701611;82;21629;-59
2021/05/22 07:01:51;;;;;;;1.05;0.93;;;;;;;;;;1699830;83;21027;-59
2021/05/22 07:04:17;;;;;;;2.02;1.40;;;;;;;;;;1699185;83;20947;-60
2021/05/22 07:06:45;;;;;;;1.75;1.10;;;;;;;;;;1699572;83;20980;-64
2021/05/22 07:09:12;;;;;;;1.87;0.90;;;;;;;;;;1701712;82;21080;-61
2021/05/22 07:11:41;;;;;;;1.85;0.80;;;;;;;;;;1700976;82;20964;-63
2021/05/22 07:14:07;;;;;;;1.87;0.80;;;;;;;;;;1701244;82;21041;-62
2021/05/22 07:16:34;;;;;;;1.07;0.70;;;;;;;;;;1701167;82;21554;-67
2021/05/22 07:19:01;;;;;;;5.05;1.10;;;;;;;;;;1700562;82;20936;-62
2021/05/22 07:21:27;;;;;;;5.40;0.80;;;;;;;;;;1701650;82;21006;-68
2021/05/22 07:23:54;;;;;;;2.47;0.80;;;;;;;;;;1700660;82;21652;-58
2021/05/22 07:26:20;;;;;;;1.92;0.90;;;;;;;;;;1701359;82;21025;-63
2021/05/22 07:28:47;;;;;;;2.25;0.75;;;;;;;;;;1700418;82;21025;-65
2021/05/22 07:31:13;;;;;;;2.42;1.07;;;;;;;;;;1703788;82;21128;-59
2021/05/22 07:33:41;;;;;;;1.95;0.95;;;;;;;;;;1697053;83;21012;-60
2021/05/22 07:36:09;;;;;;;4.12;0.70;;;;;;;;;;1697224;83;21135;-60
2021/05/22 07:38:36;;;;;;;0.80;0.80;;;;;;;;;;1696658;83;21565;-61
2021/05/22 07:41:02;;;;;;;0.70;0.70;;;;;;;;;;1696716;83;21613;-59
2021/05/22 07:43:29;;;;;;;2.30;0.80;;;;;;;;;;1696182;83;21032;-60
2021/05/22 07:45:57;;;;;;;7.80;0.80;;;;;;;;;;1696835;83;21521;-60
2021/05/22 07:48:25;;;;;;;2.52;1.05;;;;;;;;;;1697254;83;21095;-64
2021/05/22 07:50:53;;;;;;;1.45;0.80;;;;;;;;;;1696245;83;21059;-60
2021/05/22 07:53:21;;;;;;;1.45;0.70;;;;;;;;;;1696418;83;21016;-60
2021/05/22 07:55:47;;;;;;;2.08;0.60;;;;;;;;;;1697295;83;21024;-66
2021/05/22 07:58:16;;;;;;;3.00;0.75;;;;;;;;;;1700642;82;21581;-55
2021/05/22 08:00:42;;;;;;;1.25;0.90;;;;;;;;;;1702532;82;21742;-62
2021/05/22 08:03:09;;;;;;;1.10;0.57;;;;;;;;;;1698667;82;38291;-64
2021/05/22 08:05:35;;;;;;;2.12;0.72;;;;;;;;;;1698094;83;21053;-62
2021/05/22 08:08:02;;;;;;;3.15;0.47;;;;;;;;;;1695966;83;21063;-64
2021/05/22 08:10:28;;;;;;;3.40;0.82;;;;;;;;;;1696403;83;21107;-68
2021/05/22 08:12:54;;;;;;;1.25;0.55;;;;;;;;;;1695818;83;22184;-71
2021/05/22 08:15:21;;;;;;;1.15;0.53;;;;;;;;;;1702455;83;21036;-69
2021/05/22 08:17:47;;;;;;;1.80;0.70;;;;;;;;;;1700863;82;21648;-68
2021/05/22 08:20:15;;;;;;;4.30;0.50;;;;;;;;;;1650006;86;21051;-70
2021/05/22 08:22:41;;;;;;;3.60;0.72;;;;;;;;;;1652274;86;21065;-60
2021/05/22 08:25:08;;;;;;;1.85;0.72;;;;;;;;;;1671307;85;21166;-59
2021/05/22 08:27:36;;;;;;;8.70;0.78;;;;;;;;;;1656497;85;21578;-59
2021/05/22 08:30:03;;;;;;;1.47;0.70;;;;;;;;;;1649451;85;21636;-57
2021/05/22 08:32:29;;;;;;;6.33;2.90;;;;;;;;;;1649440;85;21106;-57
2021/05/22 08:34:55;;;;;;;3.50;1.10;;;;;;;;;;1683228;83;21046;-56
2021/05/22 08:37:22;;;;;;;3.87;0.98;;;;;;;;;;1678171;85;21089;-58
2021/05/22 08:39:49;;;;;;;1.92;0.62;;;;;;;;;;1679091;85;21027;-63
2021/05/22 08:42:17;;;;;;;1.50;0.70;;;;;;;;;;1686412;84;21012;-65
2021/05/22 08:44:43;;;;;;;0.65;0.50;;;;;;;;;;1660469;85;21049;-66
2021/05/22 08:47:10;;;;;;;1.60;0.70;;;;;;;;;;1665055;85;20975;-68
2021/05/22 08:49:42;;;;;;;2.67;0.78;;;;;;;;;;1665474;85;21796;-64
2021/05/22 08:52:15;;;;;;;1.30;0.70;;;;;;;;;;1666257;85;21671;-66
2021/05/22 08:54:43;;;;;;;2.33;0.55;;;;;;;;;;1666921;85;20976;-66
2021/05/22 08:57:09;;;;;;;1.57;0.53;;;;;;;;;;1697090;83;21060;-66
2021/05/22 08:59:44;;;;;;;4.45;0.80;;;;;;;;;;1697210;83;21035;-67
2021/05/22 09:02:12;;;;;;;2.10;0.60;;;;;;;;;;1717132;82;21617;-62
2021/05/22 09:05:08;;;;;;;0.72;0.40;;;;;;;;;;1713265;82;21012;-65
2021/05/22 09:07:40;;;;;;;1.17;0.70;;;;;;;;;;1714438;82;20964;-61
2021/05/22 09:10:10;;;;;;;1.52;0.80;;;;;;;;;;1712938;82;21007;-70
2021/05/22 09:12:39;;;;;;;3.67;0.70;;;;;;;;;;1711575;82;21015;-61
2021/05/22 09:15:10;;;;;;;0.72;0.65;;;;;;;;;;1714482;82;21652;-61
2021/05/22 09:17:38;;;;;;;0.60;0.60;;;;;;;;;;1712645;82;21518;-61
2021/05/22 09:20:20;;;;;;;1.30;0.80;;;;;;;;;;1711158;82;21003;-54
2021/05/22 09:23:02;;;;;;;1.45;0.68;;;;;;;;;;1709849;82;21019;-64
2021/05/22 09:25:29;;;;;;;3.37;0.62;;;;;;;;;;1707049;82;20935;-65
2021/05/22 09:27:58;;;;;;;1.65;0.60;;;;;;;;;;1702490;82;21161;-70
2021/05/22 09:30:25;;;;;;;3.92;0.90;;;;;;;;;;1698260;83;21047;-64
2021/05/22 09:32:53;;;;;;;2.62;0.85;;;;;;;;;;1691843;83;21516;-68
2021/05/22 09:35:22;;;;;;;1.10;1.00;;;;;;;;;;1691094;83;20897;-68
2021/05/22 09:37:51;;;;;;;1.20;1.05;;;;;;;;;;1691320;83;20977;-67
2021/05/22 09:40:28;;;;;;;3.05;1.35;;;;;;;;;;1691086;83;21051;-68
2021/05/22 09:42:54;;;;;;;3.87;0.68;;;;;;;;;;1691465;83;21004;-66
2021/05/22 09:45:33;;;;;;;2.17;0.88;;;;;;;;;;1688015;83;21359;-66
2021/05/22 09:48:09;;;;;;;1.02;0.90;;;;;;;;;;1670432;84;21042;-67
2021/05/22 09:50:36;;;;;;;;;;;;;;;;;;1689575;84;20998;-67
2021/05/22 09:53:21;;;;;;;6.95;1.32;;;;;;;;;;1635181;86;21020;-64
2021/05/22 09:56:08;;;;;;;2.30;0.70;;;;;;;;;;1665435;84;21633;-66
2021/05/22 09:58:36;;;;;;;2.75;1.17;;;;;;;;;;1635137;86;20999;-65
2021/05/22 10:01:02;;;;;;;6.22;1.32;;;;;;;;;;1663881;84;21613;-62
2021/05/22 10:03:29;;;;;;;4.12;1.10;;;;;;;;;;1631739;86;21171;-61
2021/05/22 10:05:56;;;;;;;1.10;0.90;;;;;;;;;;1686617;84;21075;-63
2021/05/22 10:08:22;;;;;;;2.60;0.85;;;;;;;;;;1688980;84;21093;-65
2021/05/22 10:10:53;;;;;;;4.75;0.93;;;;;;;;;;1688892;84;21582;-69
2021/05/22 10:13:21;;;;;;;1.27;0.75;;;;;;;;;;1690141;84;20979;-63
2021/05/22 10:15:49;;;;;;;1.35;0.65;;;;;;;;;;1670980;84;20975;-59
2021/05/22 10:18:19;;;;;;;2.70;1.00;;;;;;;;;;1632658;86;21100;-59
2021/05/22 10:20:46;;;;;;;0.95;0.75;;;;;;;;;;1663270;84;21029;-54
2021/05/22 10:23:13;;;;;;;5.97;0.90;;;;;;;;;;1689808;83;21306;-57
2021/05/22 10:25:39;;;;;;;2.83;0.93;;;;;;;;;;1657168;84;21559;-55
2021/05/22 10:30:50;;;;;;;4.33;1.57;;;;;;;;;;1628372;87;21151;-64
2021/05/22 10:33:16;;;;;;;4.87;1.25;;;;;;;;;;1628715;86;20959;-63
2021/05/22 10:35:52;;;;;;;1.30;0.80;;;;;;;;;;1623345;86;21068;-64
2021/05/22 10:38:37;;;;;;;3.15;1.35;;;;;;;;;;1619259;86;21023;-63
2021/05/22 10:41:07;;;;;;;3.98;1.40;;;;;;;;;;1641715;85;20977;-65
2021/05/22 10:43:46;;;;;;;3.37;1.40;;;;;;;;;;1640122;85;21114;-62
2021/05/22 10:46:14;;;;;;;4.25;1.20;;;;;;;;;;1648823;86;21027;-62
2021/05/22 10:48:47;;;;;;;5.22;0.85;;;;;;;;;;1686206;83;21076;-60
2021/05/22 10:51:33;;;;;;;2.92;0.75;;;;;;;;;;1683016;82;21008;-62
2021/05/22 10:54:10;;;;;;;2.17;0.90;;;;;;;;;;1685110;84;21506;-65
2021/05/22 10:57:03;;;;;;;0.82;0.62;;;;;;;;;;1676218;82;21110;-63
2021/05/22 10:59:29;;;;;;;0.88;0.72;;;;;;;;;;1696345;82;21569;-61
2021/05/22 11:01:56;;;;;;;1.35;0.95;;;;;;;;;;1692357;82;20911;-61
2021/05/22 11:04:26;;;;;;;1.47;0.57;;;;;;;;;;1682859;82;21067;-61
2021/05/22 11:06:55;;;;;;;1.65;0.62;;;;;;;;;;1687806;83;21053;-61
2021/05/22 11:09:34;;;;;;;0.60;0.60;;;;;;;;;;1683579;82;22807;-62
2021/05/22 11:12:05;;;;;;;4.42;0.82;;;;;;;;;;1688305;82;20964;-63
2021/05/22 11:14:54;;;;;;;1.67;0.90;;;;;;;;;;1676493;82;21043;-62
2021/05/22 11:17:29;;;;;;;0.93;0.53;;;;;;;;;;1692729;82;20936;-63
2021/05/22 11:20:09;;;;;;;2.30;0.70;;;;;;;;;;1693595;82;20934;-62
2021/05/22 11:22:46;;;;;;;1.45;0.62;;;;;;;;;;1683804;82;21109;-64
2021/05/22 11:25:14;;;;;;;7.22;0.70;;;;;;;;;;1676761;82;20972;-60
2021/05/22 11:27:48;;;;;;;2.75;1.37;;;;;;;;;;1692932;82;20993;-59
2021/05/22 11:30:15;;;;;;;3.80;0.90;;;;;;;;;;1698202;82;20947;-63
2021/05/22 11:32:43;;;;;;;1.77;1.10;;;;;;;;;;1697404;82;20997;-64
2021/05/22 11:35:28;;;;;;;3.02;0.90;;;;;;;;;;1687449;82;21575;-65
2021/05/22 11:37:58;;;;;;;2.25;1.02;;;;;;;;;;1672057;84;21606;-65
2021/05/22 11:40:44;;;;;;;4.12;0.90;;;;;;;;;;1676368;83;20981;-66
2021/05/22 11:43:22;;;;;;;3.65;0.95;;;;;;;;;;1690041;82;21770;-64
2021/05/22 11:45:50;;;;;;;1.37;0.80;;;;;;;;;;1702374;82;21043;-64
2021/05/22 11:48:33;;;;;;;1.75;0.70;;;;;;;;;;1703260;82;21164;-66
2021/05/22 11:51:19;;;;;;;3.52;0.80;;;;;;;;;;1703220;82;21102;-70
2021/05/22 11:53:59;;;;;;;1.65;1.00;;;;;;;;;;1703316;82;21667;-66
2021/05/22 11:56:26;;;;;;;1.47;0.70;;;;;;;;;;1703199;82;21778;-64
2021/05/22 11:58:54;;;;;;;1.70;1.00;;;;;;;;;;1704039;82;21019;-57
2021/05/22 12:01:26;;;;;;;2.10;0.60;;;;;;;;;;1704179;82;21107;-57
2021/05/22 12:04:00;;;;;;;2.52;0.70;;;;;;;;;;1704160;82;21044;-64
2021/05/22 12:06:31;;;;;;;2.35;0.93;;;;;;;;;;1703641;82;21569;-66
2021/05/22 12:09:12;;;;;;;2.37;0.70;;;;;;;;;;1669566;84;20990;-65
2021/05/22 12:11:44;;;;;;;1.12;0.80;;;;;;;;;;1642173;85;20956;-66
2021/05/22 12:14:09;;;;;;;2.00;0.57;;;;;;;;;;1641134;86;21133;-65
2021/05/22 12:16:36;;;;;;;2.00;0.93;;;;;;;;;;1676950;83;21617;-63
2021/05/22 12:19:16;;;;;;;2.58;0.90;;;;;;;;;;1704214;82;21016;-66
2021/05/22 12:21:50;;;;;;;5.58;1.20;;;;;;;;;;1704124;82;21019;-65
2021/05/22 12:24:16;;;;;;;3.12;1.30;;;;;;;;;;1703534;82;21478;-68
2021/05/22 12:26:51;;;;;;;2.33;1.70;;;;;;;;;;1704276;82;21672;-69
2021/05/22 12:29:17;;;;;;;2.20;1.20;;;;;;;;;;1702296;82;21498;-69
2021/05/22 12:31:50;;;;;;;4.65;1.82;;;;;;;;;;1691177;83;20972;-64
2021/05/22 12:34:19;;;;;;;4.20;1.10;;;;;;;;;;1690589;83;21016;-62
2021/05/22 12:36:58;;;;;;;2.98;1.00;;;;;;;;;;1663822;84;21624;-62
2021/05/22 12:39:35;;;;;;;3.00;0.72;;;;;;;;;;1691060;83;21121;-63
2021/05/22 12:42:21;;;;;;;3.05;0.70;;;;;;;;;;1689193;83;21018;-63
2021/05/22 12:44:51;;;;;;;1.98;0.90;;;;;;;;;;1686248;84;21105;-62
2021/05/22 12:47:18;;;;;;;2.22;0.80;;;;;;;;;;1683860;84;21609;-65
2021/05/22 12:49:52;;;;;;;5.62;1.17;;;;;;;;;;1676828;84;21002;-66
2021/05/22 12:52:19;;;;;;;3.95;1.02;;;;;;;;;;1658408;86;21325;-63
2021/05/22 12:54:45;;;;;;;2.30;0.72;;;;;;;;;;1660480;86;21574;-66
2021/05/22 12:57:22;;;;;;;1.90;1.05;;;;;;;;;;1645242;86;21650;-66
2021/05/22 12:59:58;;;;;;;1.70;0.95;;;;;;;;;;1673983;83;21040;-66
2021/05/22 13:02:25;;;;;;;;;;;;;;;;;;1673163;83;21018;-63
2021/05/22 13:05:09;;;;;;;2.37;0.93;;;;;;;;;;1673238;83;21157;-66
2021/05/22 13:07:53;;;;;;;4.75;1.40;;;;;;;;;;1652709;85;20970;-63
2021/05/22 13:10:41;;;;;;;3.35;0.78;;;;;;;;;;1686811;84;21005;-63
2021/05/22 13:13:10;;;;;;;;;;;;;;;;;;1621773;86;20916;-61
2021/05/22 13:15:39;;;;;;;1.32;0.53;;;;;;;;;;1609001;86;20160;-67
2021/05/22 13:18:24;;;;;;;2.98;0.60;;;;;;;;;;1649615;84;21167;-64
2021/05/22 13:20:57;;;;;;;3.20;0.88;;;;;;;;;;1641830;84;21087;-66
2021/05/22 13:23:26;;;;;;;6.30;1.17;;;;;;;;;;1659144;84;21035;-58
2021/05/22 13:25:54;;;;;;;3.47;0.78;;;;;;;;;;1662084;84;21051;-58
2021/05/22 13:28:25;;;;;;;3.80;1.60;;;;;;;;;;1659230;84;21004;-58
2021/05/22 13:31:14;;;;;;;7.58;1.87;;;;;;;;;;1668186;84;21194;-56
2021/05/22 13:33:49;;;;;;;6.80;2.75;;;;;;;;;;1677974;84;21057;-58
2021/05/22 13:36:16;;;;;;;2.83;1.32;;;;;;;;;;1676397;84;21644;-56
2021/05/22 13:38:42;;;;;;;2.90;0.98;;;;;;;;;;1679179;84;21047;-58
2021/05/22 13:41:10;;;;;;;1.77;0.68;;;;;;;;;;1677676;84;20935;-57
2021/05/22 13:43:37;;;;;;;1.05;0.80;;;;;;;;;;1679339;84;21099;-61
2021/05/22 13:46:04;;;;;;;1.17;0.78;;;;;;;;;;1680765;84;21631;-58
2021/05/22 13:48:32;;;;;;;3.30;0.90;;;;;;;;;;1680619;85;21306;-59
2021/05/22 13:50:58;;;;;;;2.80;0.70;;;;;;;;;;1667910;84;21612;-59
2021/05/22 13:53:25;;;;;;;0.62;0.50;;;;;;;;;;1664505;84;21007;-59
2021/05/22 13:55:53;;;;;;;1.15;0.80;;;;;;;;;;1657944;84;21015;-58
2021/05/22 13:58:19;;;;;;;1.55;1.20;;;;;;;;;;1663464;84;21655;-60
2021/05/22 14:00:46;;;;;;;2.87;1.10;;;;;;;;;;1658577;84;21000;-59
2021/05/22 14:03:12;;;;;;;4.97;0.98;;;;;;;;;;1661017;84;21021;-59
2021/05/22 14:05:38;;;;;;;2.65;0.85;;;;;;;;;;1661149;84;21699;-58
2021/05/22 14:08:05;;;;;;;5.37;1.82;;;;;;;;;;1658454;84;21023;-57
2021/05/22 14:10:32;;;;;;;2.42;0.80;;;;;;;;;;1663744;84;21038;-61
2021/05/22 14:13:01;;;;;;;0.78;0.60;;;;;;;;;;1658269;84;21083;-60
2021/05/22 14:15:28;;;;;;;1.67;0.80;;;;;;;;;;1664436;84;20896;-60
2021/05/22 14:17:57;;;;;;;1.82;0.75;;;;;;;;;;1658389;84;21035;-58
2021/05/22 14:20:23;;;;;;;2.52;0.70;;;;;;;;;;1663319;84;21109;-59
2021/05/22 14:22:51;;;;;;;1.32;0.70;;;;;;;;;;1658991;84;21067;-58
2021/05/22 14:25:18;;;;;;;0.85;0.85;;;;;;;;;;1657884;84;21524;-61
2021/05/22 14:27:44;;;;;;;1.40;0.93;;;;;;;;;;1655686;84;20991;-59
2021/05/22 14:30:12;;;;;;;1.72;0.78;;;;;;;;;;1654448;84;21066;-60
2021/05/22 14:32:38;;;;;;;0.98;0.70;;;;;;;;;;1653720;84;21097;-59
2021/05/22 14:35:11;;;;;;;1.55;0.80;;;;;;;;;;1650287;84;21653;-59
2021/05/22 14:37:37;;;;;;;1.70;0.70;;;;;;;;;;1653885;84;20960;-61
2021/05/22 14:40:08;;;;;;;0.98;0.70;;;;;;;;;;1650347;84;21529;-58
2021/05/22 14:42:34;;;;;;;3.45;0.90;;;;;;;;;;1653017;84;21009;-58
2021/05/22 14:45:00;;;;;;;1.02;0.60;;;;;;;;;;1669414;84;21045;-58
2021/05/22 14:47:26;;;;;;;1.85;0.82;;;;;;;;;;1675527;84;20987;-60
2021/05/22 14:49:52;;;;;;;1.42;0.62;;;;;;;;;;1655456;84;21019;-58
2021/05/22 14:52:18;;;;;;;1.62;0.70;;;;;;;;;;1675570;84;21560;-58
2021/05/22 14:54:44;;;;;;;9.63;1.00;;;;;;;;;;1675466;84;21071;-61
2021/05/22 14:57:10;;;;;;;0.93;0.62;;;;;;;;;;1659077;84;21607;-59
2021/05/22 14:59:36;;;;;;;1.05;0.82;;;;;;;;;;1661015;84;21015;-59